This is the latest recevied weather packets stored in our database for station/object KE8GJZ-1. If no packets are shown the sender has not sent any weather packets the latest 10 day(s).
| Time | Temp. | Humidity | Pressure | Rain* | Wind** | Luminosity | Snow |
|---|---|---|---|---|---|---|---|
| 1777217302 | 16.67° C | 51% | 1019.3 hPa | 0 mm | - | 617 W/m² | - |
| 1777216998 | 15.56° C | 56% | 1019 hPa | 0 mm | - | 654 W/m² | - |
| 1777216696 | 15.56° C | 56% | 1019.4 hPa | 0 mm | - | 591 W/m² | - |
| 1777216391 | 16.11° C | 55% | 1019.2 hPa | 0 mm | - | 588 W/m² | - |
| 1777216090 | 15.56° C | 57% | 1019.2 hPa | 0 mm | - | 589 W/m² | - |
| 1777215785 | 15.56° C | 58% | 1019.5 hPa | 0 mm | - | 566 W/m² | - |
| 1777215482 | 15° C | 62% | 1019.2 hPa | 0 mm | - | 550 W/m² | - |
| 1777215178 | 15° C | 61% | 1019.3 hPa | 0 mm | - | 549 W/m² | - |
| 1777214873 | 14.44° C | 60% | 1019.4 hPa | 0 mm | - | 534 W/m² | - |
| 1777214572 | 14.44° C | 60% | 1019.3 hPa | 0 mm | - | 558 W/m² | - |
| 1777214268 | 13.89° C | 61% | 1019.2 hPa | 0 mm | - | 540 W/m² | - |
| 1777213966 | 14.44° C | 58% | 1019.4 hPa | 0 mm | - | 496 W/m² | - |
| 1777213662 | 15° C | 60% | 1019.2 hPa | 0 mm | - | 501 W/m² | - |
| 1777213358 | 14.44° C | 61% | 1018.9 hPa | 0 mm | - | 494 W/m² | - |
| 1777213055 | 13.89° C | 62% | 1019.3 hPa | 0 mm | - | 530 W/m² | - |
| 1777212753 | 13.89° C | 63% | 1019.2 hPa | 0 mm | - | 485 W/m² | - |
| 1777212447 | 13.89° C | 63% | 1019.4 hPa | 0 mm | - | 464 W/m² | - |
| 1777212142 | 13.89° C | 63% | 1019.1 hPa | 0 mm | - | 429 W/m² | - |
| 1777211838 | 12.78° C | 67% | 1019.1 hPa | 0 mm | - | 432 W/m² | - |
| 1777211536 | 12.78° C | 68% | 1019.1 hPa | 0 mm | - | 383 W/m² | - |
| 1777211233 | 12.78° C | 68% | 1019.2 hPa | 0 mm | - | 344 W/m² | - |
| 1777210929 | 11.67° C | 70% | 1019 hPa | 0 mm | - | 309 W/m² | - |
| 1777210623 | 11.67° C | 71% | 1019 hPa | 0 mm | - | 314 W/m² | - |
| 1777210320 | 11.11° C | 75% | 1019 hPa | 0 mm | - | 223 W/m² | - |
| 1777210017 | 11.11° C | 75% | 1019 hPa | 0 mm | - | 202 W/m² | - |
* Rain latest hour (hover to see other rain measurements)
** Current wind speed in m/s (hover to see current wind gust speed)